createdAt,value
2022-12-19T00:04:03.163Z,31.00
2022-12-19T00:08:18.169Z,36.30
2022-12-19T00:12:28.919Z,35.43
2022-12-19T00:16:34.003Z,33.83
2022-12-19T00:20:38.408Z,32.83
2022-12-19T00:29:14.292Z,45.67
2022-12-19T00:33:19.954Z,37.87
2022-12-19T00:41:32.794Z,32.63
2022-12-19T00:45:39.810Z,35.80
2022-12-19T00:49:44.888Z,34.07
2022-12-19T00:53:52.958Z,34.13
2022-12-19T00:57:57.685Z,30.60
2022-12-19T01:02:05.442Z,36.93
2022-12-19T01:06:10.644Z,36.73
2022-12-19T01:10:14.458Z,35.90
2022-12-19T01:14:22.743Z,40.37
2022-12-19T01:18:26.698Z,38.80
2022-12-19T01:22:31.482Z,29.33
2022-12-19T01:26:34.727Z,27.73
2022-12-19T01:30:41.987Z,37.93
2022-12-19T01:34:46.488Z,37.27
2022-12-19T01:38:51.203Z,36.23
2022-12-19T01:42:54.402Z,35.53
2022-12-19T01:46:59.401Z,39.03
2022-12-19T01:51:06.258Z,43.03
2022-12-19T01:55:12.851Z,40.97
2022-12-19T01:59:20.864Z,34.97
2022-12-19T02:03:28.334Z,33.30
2022-12-19T02:07:33.012Z,40.27
2022-12-19T02:11:37.729Z,39.97
2022-12-19T02:15:49.358Z,28.37
2022-12-19T02:20:25.141Z,25.97
2022-12-19T02:25:00.912Z,35.37
2022-12-19T02:29:25.082Z,35.93
2022-12-19T02:33:36.624Z,33.53
2022-12-19T02:37:48.206Z,33.90
2022-12-19T02:41:57.507Z,28.67
2022-12-19T02:46:02.775Z,38.10
2022-12-19T02:50:08.727Z,39.80
2022-12-19T02:54:12.745Z,40.90
2022-12-19T02:58:32.844Z,42.60
2022-12-19T03:02:41.788Z,33.47
2022-12-19T03:06:54.070Z,29.53
2022-12-19T03:11:01.872Z,34.50
2022-12-19T03:15:06.778Z,33.43
2022-12-19T03:19:13.039Z,29.87
2022-12-19T03:23:18.380Z,35.43
2022-12-19T03:27:26.930Z,34.37
2022-12-19T03:31:34.516Z,32.70
2022-12-19T03:35:40.875Z,27.67
2022-12-19T03:39:49.806Z,37.40
2022-12-19T03:43:53.411Z,35.33
2022-12-19T03:48:01.358Z,29.73
2022-12-19T03:52:13.744Z,24.63
2022-12-19T03:56:26.676Z,34.77
2022-12-19T04:00:35.471Z,29.30
2022-12-19T04:04:46.252Z,29.40
2022-12-19T04:08:50.292Z,35.57
2022-12-19T04:12:59.316Z,34.57
2022-12-19T04:17:14.006Z,33.33
2022-12-19T04:21:23.579Z,26.90
2022-12-19T04:25:31.117Z,30.23
2022-12-19T04:29:37.635Z,33.73
2022-12-19T04:34:25.934Z,32.20
2022-12-19T04:38:29.659Z,26.53
2022-12-19T04:42:33.075Z,25.53
2022-12-19T04:46:45.394Z,29.43
2022-12-19T04:50:48.763Z,30.70
2022-12-19T04:54:52.056Z,29.90
2022-12-19T04:58:59.715Z,22.37
2022-12-19T05:03:06.020Z,31.80
2022-12-19T05:07:09.410Z,31.20
2022-12-19T05:11:19.478Z,29.37
2022-12-19T05:15:23.553Z,31.70
2022-12-19T05:19:28.535Z,29.33
2022-12-19T05:23:32.008Z,27.20
2022-12-19T05:27:35.410Z,29.03
2022-12-19T05:31:38.767Z,31.13
2022-12-19T05:35:43.822Z,24.17
2022-12-19T05:39:47.168Z,29.20
2022-12-19T05:43:53.204Z,20.80
2022-12-19T05:48:01.059Z,27.47
2022-12-19T05:52:06.168Z,30.40
2022-12-19T05:56:11.416Z,22.40
2022-12-19T06:00:16.401Z,34.30
2022-12-19T06:04:19.675Z,25.77
2022-12-19T06:08:24.757Z,34.07
2022-12-19T06:12:28.215Z,25.50
2022-12-19T06:16:31.610Z,29.30
2022-12-19T06:20:34.825Z,25.80
2022-12-19T06:24:39.603Z,31.27
2022-12-19T06:28:42.948Z,28.43
2022-12-19T06:32:46.473Z,30.37
2022-12-19T06:36:49.871Z,30.53
2022-12-19T06:41:12.794Z,35.73
2022-12-19T06:45:16.215Z,29.30
2022-12-19T06:49:19.595Z,34.30
2022-12-19T06:53:22.909Z,33.60
2022-12-19T06:57:27.932Z,29.47
2022-12-19T07:01:44.778Z,35.00
2022-12-19T07:05:49.865Z,31.53
2022-12-19T07:09:53.319Z,29.20
2022-12-19T07:13:57.935Z,27.73
2022-12-19T07:18:01.804Z,36.17
2022-12-19T07:22:05.953Z,34.40
2022-12-19T07:26:09.585Z,33.70
2022-12-19T07:30:14.878Z,31.20
2022-12-19T07:34:18.341Z,32.17
2022-12-19T07:38:21.689Z,45.23
2022-12-19T07:42:28.166Z,39.23
2022-12-19T07:46:36.976Z,39.20
2022-12-19T07:50:40.334Z,41.97
2022-12-19T07:54:43.463Z,31.70
2022-12-19T07:58:46.880Z,39.53
2022-12-19T08:02:51.629Z,37.30
2022-12-19T08:06:55.371Z,34.20
2022-12-19T08:11:10.281Z,28.53
2022-12-19T08:15:14.137Z,34.47
2022-12-19T08:19:23.412Z,31.70
2022-12-19T08:23:29.275Z,29.00
2022-12-19T08:27:34.820Z,30.23
2022-12-19T08:31:38.239Z,29.77
2022-12-19T08:35:42.838Z,32.37
2022-12-19T08:39:46.371Z,27.57
2022-12-19T08:43:51.123Z,27.27
2022-12-19T08:47:55.661Z,35.13
2022-12-19T08:52:00.424Z,27.40
2022-12-19T08:56:07.123Z,34.47
2022-12-19T09:00:11.899Z,34.40
2022-12-19T09:05:59.735Z,29.67
2022-12-19T09:08:42.019Z,36.17
2022-12-19T09:12:45.261Z,36.63
2022-12-19T09:16:48.671Z,28.23
2022-12-19T09:20:55.059Z,38.33
2022-12-19T09:24:59.855Z,34.43
2022-12-19T09:29:03.757Z,37.87
2022-12-19T09:33:16.116Z,34.50
2022-12-19T09:37:20.578Z,34.60
2022-12-19T09:41:53.352Z,33.47
2022-12-19T09:46:03.609Z,42.37
2022-12-19T09:50:21.380Z,34.30
2022-12-19T09:54:29.003Z,36.50
2022-12-19T09:58:40.949Z,34.70
2022-12-19T10:02:49.747Z,38.90
2022-12-19T10:07:19.378Z,35.13
2022-12-19T10:12:39.749Z,40.60
2022-12-19T10:16:06.709Z,39.00
2022-12-19T10:20:20.239Z,35.23
2022-12-19T10:24:38.399Z,45.87
2022-12-19T10:28:57.958Z,48.90
2022-12-19T10:33:20.339Z,46.60
2022-12-19T10:37:37.656Z,46.20
2022-12-19T10:41:50.330Z,39.50
2022-12-19T10:45:59.915Z,38.20
2022-12-19T10:50:09.516Z,37.00
2022-12-19T10:54:13.348Z,40.73
2022-12-19T10:58:23.394Z,44.93
2022-12-19T11:02:36.331Z,38.17
2022-12-19T11:06:50.318Z,40.73
2022-12-19T11:13:23.698Z,40.67
2022-12-19T11:20:32.157Z,46.00
2022-12-19T11:29:30.548Z,46.00
2022-12-19T11:30:37.987Z,47.67
2022-12-19T11:30:46.938Z,44.90
2022-12-19T11:33:13.297Z,47.00
2022-12-19T11:37:21.394Z,43.57
2022-12-19T11:41:33.692Z,42.07
2022-12-19T23:06:39.331Z,44.40
2022-12-19T23:10:46.993Z,46.73
2022-12-19T23:14:51.340Z,60.83
2022-12-19T23:18:58.556Z,41.13
2022-12-19T23:23:09.708Z,46.83
2022-12-19T23:27:17.107Z,48.60
2022-12-19T23:31:24.571Z,51.93
2022-12-19T23:35:35.686Z,54.40
2022-12-19T23:39:45.463Z,44.87
2022-12-19T23:43:53.225Z,45.87
2022-12-19T23:47:58.865Z,49.00
2022-12-19T23:52:02.888Z,49.73
2022-12-19T23:56:13.716Z,44.90
